createdAt,value
2019-04-03T00:00:15.139Z,8.50
2019-04-03T00:02:44.846Z,8.50
2019-04-03T00:05:14.414Z,8.50
2019-04-03T00:07:44.003Z,8.60
2019-04-03T00:10:14.391Z,8.50
2019-04-03T00:12:43.886Z,8.50
2019-04-03T00:15:14.309Z,8.40
2019-04-03T00:17:45.264Z,8.40
2019-04-03T00:20:14.895Z,8.40
2019-04-03T00:22:46.049Z,8.40
2019-04-03T00:25:16.534Z,8.40
2019-04-03T00:27:45.987Z,8.50
2019-04-03T00:30:15.582Z,8.50
2019-04-03T00:32:45.822Z,8.50
2019-04-03T00:35:15.279Z,8.40
2019-04-03T00:40:34.028Z,8.30
2019-04-03T00:43:03.634Z,8.20
2019-04-03T00:45:33.058Z,8.20
2019-04-03T00:48:02.535Z,8.20
2019-04-03T00:50:32.174Z,8.30
2019-04-03T00:53:01.637Z,8.30
2019-04-03T00:55:31.095Z,8.30
2019-04-03T00:58:00.571Z,8.30
2019-04-03T01:00:30.034Z,8.30
2019-04-03T01:02:59.514Z,8.30
2019-04-03T01:05:29.098Z,8.40
2019-04-03T01:07:59.874Z,8.40
2019-04-03T01:10:30.254Z,8.50
2019-04-03T01:13:01.813Z,8.50
2019-04-03T01:15:32.216Z,8.50
2019-04-03T01:18:04.607Z,8.50
2019-04-03T01:20:35.976Z,8.30
2019-04-03T01:23:06.911Z,8.40
2019-04-03T01:25:36.126Z,8.30
2019-04-03T01:28:05.611Z,8.30
2019-04-03T01:30:35.059Z,8.30
2019-04-03T01:33:04.537Z,8.30
2019-04-03T01:35:33.993Z,8.20
2019-04-03T01:38:03.471Z,8.30
2019-04-03T01:40:32.992Z,8.40
2019-04-03T01:43:02.475Z,8.50
2019-04-03T01:45:31.918Z,8.60
2019-04-03T01:48:01.621Z,8.70
2019-04-03T01:50:31.503Z,8.60
2019-04-03T01:53:02.449Z,8.60
2019-04-03T01:55:33.989Z,8.50
2019-04-03T01:58:06.300Z,8.40
2019-04-03T02:00:35.706Z,8.20
2019-04-03T02:03:05.284Z,8.00
2019-04-03T02:05:34.759Z,8.00
2019-04-03T02:08:04.355Z,8.00
2019-04-03T02:10:33.837Z,7.90
2019-04-03T02:13:03.765Z,7.90
2019-04-03T02:15:33.220Z,7.80
2019-04-03T02:18:02.687Z,7.80
2019-04-03T02:20:32.152Z,7.70
2019-04-03T02:23:01.607Z,7.60
2019-04-03T02:25:32.147Z,7.50
2019-04-03T02:28:03.551Z,7.20
2019-04-03T02:30:32.995Z,6.90
2019-04-03T02:33:02.467Z,7.10
2019-04-03T02:35:32.690Z,7.30
2019-04-03T02:38:02.157Z,7.50
2019-04-03T02:40:33.103Z,7.30
2019-04-03T02:43:02.802Z,7.10
2019-04-03T02:45:32.279Z,6.90
2019-04-03T02:48:04.582Z,6.60
2019-04-03T02:50:32.858Z,6.60
2019-04-03T02:53:04.918Z,6.60
2019-04-03T02:55:34.431Z,6.60
2019-04-03T02:58:04.060Z,6.50
2019-04-03T03:00:33.940Z,6.30
2019-04-03T03:03:03.580Z,6.10
2019-04-03T03:05:33.132Z,6.10
2019-04-03T03:08:02.603Z,6.20
2019-04-03T03:10:33.015Z,6.30
2019-04-03T03:13:03.645Z,6.30
2019-04-03T03:15:33.232Z,6.20
2019-04-03T03:18:02.970Z,6.20
2019-04-03T03:20:33.413Z,6.40
2019-04-03T03:23:03.384Z,6.40
2019-04-03T03:25:34.326Z,6.50
2019-04-03T03:28:04.128Z,6.50
2019-04-03T03:30:44.437Z,6.50
2019-04-03T03:33:24.388Z,6.70
2019-04-03T03:35:41.396Z,6.70
2019-04-03T03:38:09.564Z,6.70
2019-04-03T03:40:39.377Z,6.90
2019-04-03T03:43:08.955Z,7.20
2019-04-03T03:45:38.499Z,7.30
2019-04-03T03:48:10.442Z,7.30
2019-04-03T03:50:39.986Z,7.40
2019-04-03T03:53:11.404Z,7.50
2019-04-03T03:55:41.465Z,7.40
2019-04-03T03:58:12.651Z,7.50
2019-04-03T04:00:42.538Z,7.60
2019-04-03T04:03:12.958Z,7.70
2019-04-03T04:05:42.775Z,7.80
2019-04-03T04:08:12.604Z,7.90
2019-04-03T04:10:43.586Z,7.90
2019-04-03T04:13:15.523Z,7.90
2019-04-03T04:15:45.027Z,7.80
2019-04-03T04:18:15.527Z,7.80
2019-04-03T04:20:45.786Z,7.70
2019-04-03T04:23:15.636Z,7.70
2019-04-03T04:25:45.695Z,7.90
2019-04-03T04:28:15.287Z,8.00
2019-04-03T04:30:46.114Z,8.10
2019-04-03T04:33:17.023Z,8.30
2019-04-03T04:35:46.675Z,8.40
2019-04-03T04:38:16.365Z,8.50
2019-04-03T04:40:45.960Z,8.60
2019-04-03T04:43:15.371Z,8.40
2019-04-03T04:45:45.823Z,8.20
2019-04-03T04:48:16.495Z,8.00
2019-04-03T04:50:47.451Z,8.00
2019-04-03T04:53:16.908Z,8.00
2019-04-03T04:55:46.424Z,8.00
2019-04-03T04:58:16.029Z,8.00
2019-04-03T05:00:47.631Z,8.00
2019-04-03T05:03:16.803Z,8.10
2019-04-03T05:05:46.288Z,8.20
2019-04-03T05:08:15.792Z,8.30
2019-04-03T05:10:45.235Z,8.40
2019-04-03T05:13:16.233Z,8.50
2019-04-03T05:15:45.855Z,8.40
2019-04-03T05:18:15.467Z,8.40
2019-04-03T05:20:44.959Z,8.40
2019-04-03T05:23:14.414Z,8.50
2019-04-03T05:25:44.358Z,8.60
2019-04-03T05:28:13.818Z,8.70
2019-04-03T05:30:43.300Z,8.70
2019-04-03T05:33:12.866Z,8.70
2019-04-03T05:35:42.317Z,8.80
2019-04-03T05:38:11.767Z,8.80
2019-04-03T05:40:41.264Z,8.60
2019-04-03T05:43:10.721Z,8.50
2019-04-03T05:45:41.762Z,8.50
2019-04-03T05:48:13.380Z,8.50
2019-04-03T05:50:42.391Z,8.50
2019-04-03T05:53:11.935Z,8.50
2019-04-03T05:55:41.743Z,8.50
2019-04-03T05:58:11.247Z,8.50
2019-04-03T06:00:42.603Z,8.60
2019-04-03T06:03:12.497Z,8.60
2019-04-03T06:05:44.022Z,8.70
2019-04-03T06:08:13.091Z,8.80
2019-04-03T06:10:43.633Z,8.80
2019-04-03T06:13:13.537Z,8.90
2019-04-03T06:15:43.071Z,9.00
2019-04-03T06:18:12.622Z,9.10
2019-04-03T06:20:43.555Z,9.20
2019-04-03T06:23:13.174Z,9.30
2019-04-03T06:25:42.677Z,9.40
2019-04-03T06:28:13.124Z,9.60
2019-04-03T06:30:43.317Z,9.70
2019-04-03T06:33:12.863Z,9.90
2019-04-03T06:35:44.542Z,9.90
2019-04-03T06:38:13.464Z,9.80
2019-04-03T06:40:42.955Z,9.90
2019-04-03T06:43:12.462Z,10.00
2019-04-03T06:45:43.865Z,10.00
2019-04-03T06:48:13.047Z,10.10
2019-04-03T06:50:42.503Z,10.20
2019-04-03T06:53:12.003Z,10.20
2019-04-03T06:55:41.461Z,10.20
2019-04-03T06:58:11.604Z,10.30
2019-04-03T07:00:41.722Z,10.40
2019-04-03T07:03:12.284Z,10.50
2019-04-03T07:05:42.152Z,10.50
2019-04-03T07:08:12.909Z,10.70
2019-04-03T07:10:54.244Z,10.70
2019-04-03T07:13:15.180Z,10.70
2019-04-03T07:15:44.827Z,10.90
2019-04-03T07:18:14.383Z,11.10
2019-04-03T07:20:44.072Z,11.10
2019-04-03T07:23:14.925Z,11.10
2019-04-03T07:25:44.478Z,11.10
2019-04-03T07:28:15.028Z,11.00
2019-04-03T07:30:44.491Z,11.00
2019-04-03T07:33:13.974Z,11.00
2019-04-03T07:35:43.502Z,11.00
2019-04-03T07:38:12.999Z,11.10
2019-04-03T07:40:42.531Z,11.20
2019-04-03T07:43:12.023Z,11.30
2019-04-03T07:45:43.740Z,11.20
2019-04-03T07:48:12.795Z,11.20
2019-04-03T07:50:42.545Z,11.10
2019-04-03T07:53:12.032Z,11.20
2019-04-03T07:55:43.713Z,11.10
2019-04-03T07:58:12.597Z,11.20
2019-04-03T08:00:42.136Z,11.30
2019-04-03T08:03:11.652Z,11.30
2019-04-03T08:05:41.119Z,11.40
2019-04-03T08:08:10.599Z,11.50
2019-04-03T08:10:40.058Z,11.50
2019-04-03T08:13:09.650Z,11.50
2019-04-03T08:15:39.112Z,11.40
2019-04-03T08:18:08.598Z,11.40
2019-04-03T08:20:38.190Z,11.40
2019-04-03T08:23:07.643Z,11.40
2019-04-03T08:25:37.103Z,11.40
2019-04-03T08:28:06.585Z,11.30
2019-04-03T08:30:37.056Z,11.20
2019-04-03T08:33:15.892Z,11.20
2019-04-03T08:35:38.370Z,11.40
2019-04-03T08:38:08.153Z,11.70
2019-04-03T08:40:37.981Z,11.90
2019-04-03T08:43:07.536Z,11.90
2019-04-03T08:45:38.562Z,11.90
2019-04-03T08:48:08.152Z,11.90
2019-04-03T08:50:37.707Z,11.90
2019-04-03T08:53:08.661Z,12.10
2019-04-03T08:55:38.830Z,12.10
2019-04-03T08:58:08.411Z,12.30
2019-04-03T09:00:38.138Z,12.40
2019-04-03T09:03:07.625Z,12.50
2019-04-03T09:05:37.483Z,12.50
2019-04-03T09:08:07.117Z,12.70
2019-04-03T09:10:37.537Z,12.60
2019-04-03T09:13:16.771Z,12.50
2019-04-03T09:15:38.489Z,12.50
2019-04-03T09:18:08.038Z,12.30
2019-04-03T09:20:37.854Z,12.40
2019-04-03T09:23:07.640Z,12.40
2019-04-03T09:25:37.119Z,12.20
2019-04-03T09:28:06.678Z,12.00
2019-04-03T09:30:36.206Z,11.80
2019-04-03T09:33:05.694Z,11.60
2019-04-03T09:35:35.419Z,11.60
2019-04-03T09:38:05.305Z,11.70
2019-04-03T09:40:35.451Z,11.60
2019-04-03T09:43:04.937Z,11.70
2019-04-03T09:45:34.591Z,11.90
2019-04-03T09:48:05.645Z,12.10
2019-04-03T09:50:35.748Z,12.20
2019-04-03T09:53:05.282Z,12.40
2019-04-03T09:55:37.296Z,12.70
2019-04-03T09:58:06.223Z,13.00
2019-04-03T10:00:35.684Z,12.90
2019-04-03T10:03:05.992Z,12.80
2019-04-03T10:05:36.664Z,12.70
2019-04-03T10:08:08.424Z,12.60
2019-04-03T10:10:37.241Z,12.50
2019-04-03T10:13:06.696Z,12.40
2019-04-03T10:15:36.166Z,12.50
2019-04-03T10:18:06.946Z,12.70
2019-04-03T10:20:36.799Z,13.00
2019-04-03T10:23:06.551Z,13.30
2019-04-03T10:25:37.063Z,13.40
2019-04-03T10:28:07.285Z,13.00
2019-04-03T10:30:36.768Z,13.00
2019-04-03T10:33:06.286Z,12.90
2019-04-03T10:35:38.505Z,12.90
2019-04-03T10:38:06.846Z,12.80
2019-04-03T10:40:36.442Z,12.80
2019-04-03T10:43:06.637Z,12.80
2019-04-03T10:45:36.424Z,12.90
2019-04-03T10:48:05.977Z,13.10
2019-04-03T10:50:37.543Z,13.40
2019-04-03T10:53:06.545Z,13.80
2019-04-03T10:55:36.156Z,13.90
2019-04-03T10:58:07.635Z,14.10
2019-04-03T11:00:37.048Z,14.00
2019-04-03T11:03:06.681Z,13.60
2019-04-03T11:05:36.225Z,13.60
2019-04-03T11:08:05.788Z,13.70
2019-04-03T11:10:35.550Z,13.80
2019-04-03T11:13:05.316Z,13.80
2019-04-03T11:15:34.845Z,13.90
2019-04-03T11:18:05.369Z,14.00
2019-04-03T11:20:36.715Z,13.90
2019-04-03T11:23:08.125Z,13.90
2019-04-03T11:25:40.783Z,13.60
2019-04-03T11:28:08.249Z,13.50
2019-04-03T11:30:37.694Z,13.60
2019-04-03T11:33:07.156Z,13.70
2019-04-03T11:35:36.613Z,13.80
2019-04-03T11:38:12.751Z,13.90
2019-04-03T11:40:37.159Z,13.90
2019-04-03T11:43:06.696Z,14.00
2019-04-03T11:45:36.292Z,14.10
2019-04-03T11:48:05.825Z,14.20
2019-04-03T11:50:35.688Z,14.50
2019-04-03T11:53:07.606Z,15.00
2019-04-03T11:55:36.303Z,15.20
2019-04-03T11:58:06.178Z,15.20
2019-04-03T12:00:38.312Z,15.00
2019-04-03T12:03:09.327Z,15.00
2019-04-03T12:05:38.838Z,15.00
2019-04-03T12:08:08.537Z,14.90
2019-04-03T12:10:38.001Z,13.50
2019-04-03T12:13:07.530Z,12.30
2019-04-03T12:15:37.002Z,11.10
2019-04-03T12:18:06.576Z,10.10
2019-04-03T12:20:36.418Z,9.30
2019-04-03T12:23:06.078Z,8.80
2019-04-03T12:25:38.211Z,8.60
2019-04-03T12:28:07.433Z,8.30
2019-04-03T12:30:37.068Z,8.10
2019-04-03T12:33:06.793Z,8.00
2019-04-03T12:35:36.316Z,8.10
2019-04-03T12:38:06.863Z,8.20
2019-04-03T12:40:36.285Z,8.10
2019-04-03T12:43:05.736Z,8.00
2019-04-03T12:45:36.285Z,8.00
2019-04-03T12:48:05.739Z,8.00
2019-04-03T12:50:35.206Z,8.10
2019-04-03T12:53:04.722Z,8.50
2019-04-03T12:55:34.561Z,8.70
2019-04-03T12:58:05.524Z,8.80
2019-04-03T13:00:35.360Z,8.70
2019-04-03T13:03:04.814Z,8.40
2019-04-03T13:05:36.339Z,8.30
2019-04-03T13:08:05.529Z,8.20
2019-04-03T13:10:42.171Z,8.10
2019-04-03T13:13:06.738Z,8.10
2019-04-03T13:15:37.959Z,8.00
2019-04-03T13:18:08.031Z,7.90
2019-04-03T13:20:38.717Z,7.90
2019-04-03T13:23:08.355Z,7.90
2019-04-03T13:25:37.889Z,7.70
2019-04-03T13:28:07.361Z,7.70
2019-04-03T13:30:36.847Z,7.70
2019-04-03T13:33:07.715Z,7.70
2019-04-03T13:35:37.771Z,7.70
2019-04-03T13:38:07.397Z,7.70
2019-04-03T13:40:39.023Z,7.80
2019-04-03T13:43:08.658Z,7.90
2019-04-03T13:45:38.143Z,7.90
2019-04-03T13:48:07.724Z,7.80
2019-04-03T13:50:37.232Z,8.00
2019-04-03T13:53:07.054Z,8.00
2019-04-03T13:55:39.459Z,8.00
2019-04-03T13:58:09.106Z,8.00
2019-04-03T14:00:38.745Z,8.10
2019-04-03T14:03:08.290Z,8.20
2019-04-03T14:05:38.119Z,8.30
2019-04-03T14:08:08.329Z,8.30
2019-04-03T14:10:37.859Z,8.40
2019-04-03T14:13:10.863Z,8.30
2019-04-03T14:15:41.144Z,8.30
2019-04-03T14:18:10.058Z,8.30
2019-04-03T14:20:39.503Z,8.30
2019-04-03T14:23:08.988Z,8.40
2019-04-03T14:25:39.231Z,8.40
2019-04-03T14:28:09.101Z,8.40
2019-04-03T14:30:38.582Z,8.50
2019-04-03T14:33:08.057Z,8.60
2019-04-03T14:35:48.749Z,8.70
2019-04-03T14:38:11.585Z,8.70
2019-04-03T14:40:39.663Z,8.90
2019-04-03T14:43:09.130Z,9.10
2019-04-03T14:45:39.656Z,10.00
2019-04-03T14:48:10.160Z,10.90
2019-04-03T14:50:39.747Z,11.80
2019-04-03T14:53:09.416Z,11.90
2019-04-03T14:55:47.090Z,11.20
2019-04-03T14:58:10.026Z,10.90
2019-04-03T15:00:39.492Z,10.40
2019-04-03T15:03:10.305Z,10.40
2019-04-03T15:05:42.560Z,10.30
2019-04-03T15:08:10.982Z,10.00
2019-04-03T15:10:40.460Z,10.00
2019-04-03T15:13:12.672Z,10.30
2019-04-03T15:15:41.333Z,10.50
2019-04-03T15:18:11.225Z,10.60
2019-04-03T15:20:41.226Z,11.00
2019-04-03T15:23:10.693Z,11.10
2019-04-03T15:25:42.548Z,11.20
2019-04-03T15:28:11.231Z,11.70
2019-04-03T15:33:24.744Z,11.40
2019-04-03T15:35:54.580Z,11.00
2019-04-03T15:38:25.388Z,10.80
2019-04-03T15:40:57.545Z,10.60
2019-04-03T15:43:26.099Z,10.50
2019-04-03T15:45:56.596Z,10.50
2019-04-03T15:48:27.062Z,10.60
2019-04-03T15:50:56.746Z,10.50
2019-04-03T15:53:26.237Z,10.50
2019-04-03T15:55:55.718Z,10.50
2019-04-03T15:58:26.730Z,10.30
2019-04-03T16:00:56.315Z,10.20
2019-04-03T16:03:27.321Z,10.10
2019-04-03T16:05:57.463Z,10.10
2019-04-03T16:08:27.094Z,10.20
2019-04-03T16:10:58.327Z,10.40
2019-04-03T16:13:27.710Z,10.20
2019-04-03T16:16:00.234Z,10.10
2019-04-03T16:18:28.356Z,10.20
2019-04-03T16:20:58.230Z,10.10
2019-04-03T16:23:27.776Z,10.20
2019-04-03T16:25:57.720Z,10.30
2019-04-03T16:28:27.464Z,10.40
2019-04-03T16:30:57.077Z,10.30
2019-04-03T16:33:26.601Z,10.20
2019-04-03T16:35:56.206Z,10.10
2019-04-03T16:38:27.717Z,10.10
2019-04-03T16:40:56.710Z,10.00
2019-04-03T16:43:26.191Z,9.80
2019-04-03T16:45:55.633Z,9.60
2019-04-03T16:48:25.095Z,9.40
2019-04-03T16:50:54.536Z,9.30
2019-04-03T16:53:24.081Z,9.20
2019-04-03T16:55:53.953Z,9.10
2019-04-03T16:58:25.945Z,9.10
2019-04-03T17:00:55.057Z,9.10
2019-04-03T17:03:26.636Z,9.00
2019-04-03T17:05:55.622Z,9.00
2019-04-03T17:08:25.936Z,9.00
2019-04-03T17:10:56.231Z,8.80
2019-04-03T17:13:25.702Z,8.70
2019-04-03T17:15:55.153Z,8.60
2019-04-03T17:18:24.630Z,8.60
2019-04-03T17:20:56.209Z,8.50
2019-04-03T17:23:25.599Z,8.50
2019-04-03T17:25:55.216Z,8.40
2019-04-03T17:28:26.422Z,8.30
2019-04-03T17:30:55.771Z,8.30
2019-04-03T17:33:25.236Z,8.30
2019-04-03T17:35:54.683Z,8.30
2019-04-03T17:38:25.227Z,8.30
2019-04-03T17:40:54.665Z,8.30
2019-04-03T17:43:24.135Z,8.30
2019-04-03T17:45:53.676Z,8.30
2019-04-03T17:48:24.875Z,8.20
2019-04-03T17:50:55.866Z,8.30
2019-04-03T17:53:26.577Z,8.20
2019-04-03T17:55:56.021Z,8.30
2019-04-03T17:58:25.802Z,8.20
2019-04-03T18:00:55.249Z,8.20
2019-04-03T18:03:24.715Z,8.20
2019-04-03T18:05:56.565Z,8.20
2019-04-03T18:08:25.654Z,8.10
2019-04-03T18:10:55.105Z,8.00
2019-04-03T18:13:25.540Z,8.00
2019-04-03T18:15:54.986Z,8.00
2019-04-03T18:18:24.457Z,7.90
2019-04-03T18:20:53.935Z,7.90
2019-04-03T18:23:23.389Z,7.90
2019-04-03T18:25:52.849Z,7.90
2019-04-03T18:28:22.302Z,7.90
2019-04-03T18:30:51.776Z,7.90
2019-04-03T18:33:21.216Z,7.90
2019-04-03T18:35:50.689Z,7.90
2019-04-03T18:38:20.145Z,7.90
2019-04-03T18:40:50.003Z,7.90
2019-04-03T18:43:21.630Z,7.90
2019-04-03T18:45:50.521Z,7.80
2019-04-03T18:48:21.043Z,7.80
2019-04-03T18:50:50.511Z,7.80
2019-04-03T18:53:19.949Z,7.80
2019-04-03T18:55:49.442Z,7.70
2019-04-03T18:58:18.891Z,7.70
2019-04-03T19:00:48.362Z,7.70
2019-04-03T19:03:17.797Z,7.70
2019-04-03T19:05:47.335Z,7.70
2019-04-03T19:08:18.300Z,7.70
2019-04-03T19:10:47.890Z,7.70
2019-04-03T19:13:17.366Z,7.70
2019-04-03T19:15:46.875Z,7.80
2019-04-03T19:18:19.800Z,7.70
2019-04-03T19:20:47.441Z,7.70
2019-04-03T19:23:17.946Z,7.70
2019-04-03T19:25:47.417Z,7.70
2019-04-03T19:28:16.928Z,7.80
2019-04-03T19:30:46.537Z,7.70
2019-04-03T19:33:16.154Z,7.80
2019-04-03T19:35:45.545Z,7.80
2019-04-03T19:38:15.070Z,7.70
2019-04-03T19:40:44.526Z,7.80
2019-04-03T19:43:14.966Z,7.70
2019-04-03T19:45:46.277Z,7.70
2019-04-03T19:48:15.787Z,7.70
2019-04-03T19:50:45.320Z,7.70
2019-04-03T19:53:14.774Z,7.70
2019-04-03T19:55:44.276Z,7.70
2019-04-03T19:58:13.716Z,7.80
2019-04-03T20:00:43.360Z,7.70
2019-04-03T20:03:14.199Z,7.70
2019-04-03T20:05:44.426Z,7.70
2019-04-03T20:08:13.924Z,7.60
2019-04-03T20:10:44.470Z,7.60
2019-04-03T20:13:13.926Z,7.60
2019-04-03T20:15:43.389Z,7.30
2019-04-03T20:18:12.904Z,7.10
2019-04-03T20:20:42.366Z,7.00
2019-04-03T20:23:11.800Z,6.90
2019-04-03T20:25:41.283Z,6.70
2019-04-03T20:28:10.908Z,6.60
2019-04-03T20:30:40.485Z,6.60
2019-04-03T20:33:11.697Z,6.60
2019-04-03T20:35:41.023Z,6.50
2019-04-03T20:38:10.476Z,6.40
2019-04-03T20:40:40.054Z,6.40
2019-04-03T20:43:11.423Z,6.40
2019-04-03T20:45:40.610Z,6.40
2019-04-03T20:48:10.051Z,6.30
2019-04-03T20:50:39.506Z,6.30
2019-04-03T20:53:09.032Z,6.30
2019-04-03T20:55:38.444Z,6.40
2019-04-03T20:58:07.903Z,6.40
2019-04-03T21:00:37.418Z,6.40
2019-04-03T21:03:06.936Z,6.50
2019-04-03T21:05:37.430Z,6.60
2019-04-03T21:08:06.890Z,6.50
2019-04-03T21:10:36.337Z,6.50
2019-04-03T21:13:06.843Z,6.50
2019-04-03T21:15:36.877Z,6.50
2019-04-03T21:18:06.338Z,6.50
2019-04-03T21:20:35.789Z,6.50
2019-04-03T21:23:05.260Z,6.50
2019-04-03T21:25:36.117Z,6.60
2019-04-03T21:28:07.127Z,6.60
2019-04-03T21:30:36.568Z,6.60
2019-04-03T21:33:06.045Z,6.50
2019-04-03T21:35:35.875Z,6.50
2019-04-03T21:38:06.426Z,6.50
2019-04-03T21:40:36.046Z,6.50
2019-04-03T21:43:07.607Z,6.50
2019-04-03T21:45:38.778Z,6.40
2019-04-03T21:48:08.277Z,6.40
2019-04-03T21:50:37.730Z,6.40
2019-04-03T21:53:07.205Z,6.40
2019-04-03T21:55:36.661Z,6.40
2019-04-03T21:58:06.916Z,6.50
2019-04-03T22:00:59.215Z,6.50
2019-04-03T22:03:28.835Z,6.40
2019-04-03T22:05:58.273Z,6.40
2019-04-03T22:08:29.046Z,6.40
2019-04-03T22:10:59.311Z,6.40
2019-04-03T22:13:28.946Z,6.40
2019-04-03T22:15:58.385Z,6.40
2019-04-03T22:18:27.859Z,6.40
2019-04-03T22:20:57.341Z,6.40
2019-04-03T22:23:26.777Z,6.30
2019-04-03T22:25:56.229Z,6.30
2019-04-03T22:28:25.694Z,6.30
2019-04-03T22:30:55.141Z,6.30
2019-04-03T22:33:27.538Z,6.30
2019-04-03T22:35:55.673Z,6.30
2019-04-03T22:38:25.147Z,6.30
2019-04-03T22:40:54.597Z,6.30
2019-04-03T22:43:24.062Z,6.30
2019-04-03T22:45:53.501Z,6.30
2019-04-03T22:48:22.986Z,6.30
2019-04-03T22:50:52.506Z,6.30
2019-04-03T22:53:21.978Z,6.30
2019-04-03T22:55:51.416Z,6.30
2019-04-03T22:58:21.502Z,6.30
2019-04-03T23:00:51.177Z,6.30
2019-04-03T23:03:20.658Z,6.40
2019-04-03T23:05:50.103Z,6.40
2019-04-03T23:08:20.958Z,6.40
2019-04-03T23:10:50.642Z,6.40
2019-04-03T23:13:20.123Z,6.30
2019-04-03T23:15:49.565Z,6.30
2019-04-03T23:18:19.039Z,6.30
2019-04-03T23:20:48.494Z,6.30
2019-04-03T23:23:17.987Z,6.20
2019-04-03T23:25:47.433Z,6.20
2019-04-03T23:28:16.899Z,6.20
2019-04-03T23:30:46.342Z,6.20
2019-04-03T23:33:16.942Z,6.20
2019-04-03T23:35:47.085Z,6.20
2019-04-03T23:38:16.549Z,6.20
2019-04-03T23:40:45.993Z,6.20
2019-04-03T23:43:15.472Z,6.20
2019-04-03T23:45:44.926Z,6.10
2019-04-03T23:48:17.584Z,6.10
2019-04-03T23:50:45.558Z,6.20
2019-04-03T23:53:15.089Z,6.10
2019-04-03T23:55:44.513Z,6.10
2019-04-03T23:58:13.986Z,6.10
